sensor_id;sensor_type;location;lat;lon;timestamp;pressure;altitude;pressure_sealevel;temperature
1532;BMP280;759;53.170;8.210;2022-11-18T00:00:22;98976.59;;;5.36
1532;BMP280;759;53.170;8.210;2022-11-18T00:02:47;98978.13;;;5.37
1532;BMP280;759;53.170;8.210;2022-11-18T00:05:13;98975.16;;;5.28
1532;BMP280;759;53.170;8.210;2022-11-18T00:07:38;98982.69;;;5.33
1532;BMP280;759;53.170;8.210;2022-11-18T00:10:03;98981.22;;;5.28
1532;BMP280;759;53.170;8.210;2022-11-18T00:12:28;98981.19;;;5.32
1532;BMP280;759;53.170;8.210;2022-11-18T00:15:12;98984.59;;;5.29
1532;BMP280;759;53.170;8.210;2022-11-18T00:17:38;98987.25;;;5.29
1532;BMP280;759;53.170;8.210;2022-11-18T00:20:03;98993.28;;;5.33
1532;BMP280;759;53.170;8.210;2022-11-18T00:22:28;98993.72;;;5.28
1532;BMP280;759;53.170;8.210;2022-11-18T00:24:53;98988.78;;;5.30
1532;BMP280;759;53.170;8.210;2022-11-18T00:27:19;98993.69;;;5.31
1532;BMP280;759;53.170;8.210;2022-11-18T00:29:44;99009.25;;;5.29
1532;BMP280;759;53.170;8.210;2022-11-18T00:32:09;99013.78;;;5.29
1532;BMP280;759;53.170;8.210;2022-11-18T00:34:34;99006.56;;;5.33
1532;BMP280;759;53.170;8.210;2022-11-18T00:36:59;99009.56;;;5.35
1532;BMP280;759;53.170;8.210;2022-11-18T00:39:25;99008.47;;;5.29
1532;BMP280;759;53.170;8.210;2022-11-18T00:41:50;99006.59;;;5.26
1532;BMP280;759;53.170;8.210;2022-11-18T00:44:34;99004.34;;;5.20
1532;BMP280;759;53.170;8.210;2022-11-18T00:46:59;99012.31;;;5.17
1532;BMP280;759;53.170;8.210;2022-11-18T00:49:24;99017.97;;;5.26
1532;BMP280;759;53.170;8.210;2022-11-18T00:51:49;99016.47;;;5.21
1532;BMP280;759;53.170;8.210;2022-11-18T00:54:15;99017.56;;;5.28
1532;BMP280;759;53.170;8.210;2022-11-18T00:56:40;99017.97;;;5.22
1532;BMP280;759;53.170;8.210;2022-11-18T00:59:05;99014.94;;;5.24
1532;BMP280;759;53.170;8.210;2022-11-18T01:01:30;99015.69;;;5.21
1532;BMP280;759;53.170;8.210;2022-11-18T01:03:56;99019.88;;;5.22
1532;BMP280;759;53.170;8.210;2022-11-18T01:06:21;99028.56;;;5.22
1532;BMP280;759;53.170;8.210;2022-11-18T01:08:46;99028.97;;;5.21
1532;BMP280;759;53.170;8.210;2022-11-18T01:11:12;99035.78;;;5.22
1532;BMP280;759;53.170;8.210;2022-11-18T01:13:55;99032.75;;;5.24
1532;BMP280;759;53.170;8.210;2022-11-18T01:16:22;99027.44;;;5.24
1532;BMP280;759;53.170;8.210;2022-11-18T01:18:47;99035.03;;;5.21
1532;BMP280;759;53.170;8.210;2022-11-18T01:21:13;99038.81;;;5.17
1532;BMP280;759;53.170;8.210;2022-11-18T01:23:38;99047.16;;;5.19
1532;BMP280;759;53.170;8.210;2022-11-18T01:26:04;99046.38;;;5.26
1532;BMP280;759;53.170;8.210;2022-11-18T01:28:30;99059.25;;;5.27
1532;BMP280;759;53.170;8.210;2022-11-18T01:30:57;99050.19;;;5.17
1532;BMP280;759;53.170;8.210;2022-11-18T01:33:26;99056.25;;;5.21
1532;BMP280;759;53.170;8.210;2022-11-18T01:35:52;99055.47;;;5.21
1532;BMP280;759;53.170;8.210;2022-11-18T01:38:17;99054.72;;;5.24
1532;BMP280;759;53.170;8.210;2022-11-18T01:40:42;99047.16;;;5.15
1532;BMP280;759;53.170;8.210;2022-11-18T01:43:15;99058.53;;;5.19
1532;BMP280;759;53.170;8.210;2022-11-18T01:45:41;99056.28;;;5.14
1532;BMP280;759;53.170;8.210;2022-11-18T01:50:36;99063.03;;;5.26
1532;BMP280;759;53.170;8.210;2022-11-18T01:53:04;99060.03;;;5.17
1532;BMP280;759;53.170;8.210;2022-11-18T01:55:32;99061.19;;;5.19
1532;BMP280;759;53.170;8.210;2022-11-18T01:58:03;99051.38;;;5.13
1532;BMP280;759;53.170;8.210;2022-11-18T02:00:30;99061.59;;;5.14
1532;BMP280;759;53.170;8.210;2022-11-18T02:02:55;99061.97;;;5.13
1532;BMP280;759;53.170;8.210;2022-11-18T02:05:20;99067.25;;;5.16
1532;BMP280;759;53.170;8.210;2022-11-18T02:07:46;99066.16;;;5.07
1532;BMP280;759;53.170;8.210;2022-11-18T02:10:16;99073.38;;;5.06
1532;BMP280;759;53.170;8.210;2022-11-18T02:12:42;99080.63;;;4.95
1532;BMP280;759;53.170;8.210;2022-11-18T02:15:07;99076.78;;;5.03
1532;BMP280;759;53.170;8.210;2022-11-18T02:17:54;99083.19;;;5.09
1532;BMP280;759;53.170;8.210;2022-11-18T02:20:38;99077.50;;;5.07
1532;BMP280;759;53.170;8.210;2022-11-18T02:23:17;99081.34;;;4.99
1532;BMP280;759;53.170;8.210;2022-11-18T02:31:01;99081.31;;;5.06
1532;BMP280;759;53.170;8.210;2022-11-18T02:33:48;99087.75;;;5.05
1532;BMP280;759;53.170;8.210;2022-11-18T02:36:17;99086.28;;;4.97
1532;BMP280;759;53.170;8.210;2022-11-18T02:38:44;99082.09;;;4.99
1532;BMP280;759;53.170;8.210;2022-11-18T02:41:15;99079.06;;;5.01
1532;BMP280;759;53.170;8.210;2022-11-18T02:43:46;99086.66;;;4.95
1532;BMP280;759;53.170;8.210;2022-11-18T02:46:13;99088.56;;;4.95
1532;BMP280;759;53.170;8.210;2022-11-18T02:48:40;99087.78;;;4.91
1532;BMP280;759;53.170;8.210;2022-11-18T02:51:08;99094.25;;;4.93
1532;BMP280;759;53.170;8.210;2022-11-18T02:53:34;99092.72;;;4.89
1532;BMP280;759;53.170;8.210;2022-11-18T02:56:00;99104.84;;;4.90
1532;BMP280;759;53.170;8.210;2022-11-18T02:58:26;99101.09;;;4.87
1532;BMP280;759;53.170;8.210;2022-11-18T03:00:52;99101.81;;;4.95
1532;BMP280;759;53.170;8.210;2022-11-18T03:03:25;99096.91;;;4.97
1532;BMP280;759;53.170;8.210;2022-11-18T03:08:25;99106.69;;;5.00
1532;BMP280;759;53.170;8.210;2022-11-18T03:10:53;99113.91;;;4.96
1532;BMP280;759;53.170;8.210;2022-11-18T03:13:23;99115.78;;;4.99
1532;BMP280;759;53.170;8.210;2022-11-18T03:15:54;99120.75;;;4.93
1532;BMP280;759;53.170;8.210;2022-11-18T03:18:26;99118.47;;;4.95
1532;BMP280;759;53.170;8.210;2022-11-18T03:20:54;99126.78;;;4.94
1532;BMP280;759;53.170;8.210;2022-11-18T03:23:30;99127.50;;;4.98
1532;BMP280;759;53.170;8.210;2022-11-18T03:26:29;99129.06;;;4.95
1532;BMP280;759;53.170;8.210;2022-11-18T03:28:48;99130.59;;;4.89
1532;BMP280;759;53.170;8.210;2022-11-18T03:33:49;99136.28;;;4.80
1532;BMP280;759;53.170;8.210;2022-11-18T03:36:16;99136.66;;;4.83
1532;BMP280;759;53.170;8.210;2022-11-18T03:38:43;99144.25;;;4.73
1532;BMP280;759;53.170;8.210;2022-11-18T03:41:10;99141.94;;;4.83
1532;BMP280;759;53.170;8.210;2022-11-18T03:43:38;99141.94;;;4.83
1532;BMP280;759;53.170;8.210;2022-11-18T03:46:06;99112.53;;;4.55
1532;BMP280;759;53.170;8.210;2022-11-18T03:48:41;99148.06;;;4.72
1532;BMP280;759;53.170;8.210;2022-11-18T03:51:09;99151.81;;;4.71
1532;BMP280;759;53.170;8.210;2022-11-18T03:53:37;99148.81;;;4.76
1532;BMP280;759;53.170;8.210;2022-11-18T03:56:11;99163.94;;;4.72
1532;BMP280;759;53.170;8.210;2022-11-18T03:58:43;99164.31;;;4.67
1532;BMP280;759;53.170;8.210;2022-11-18T04:01:12;99170.00;;;4.73
1532;BMP280;759;53.170;8.210;2022-11-18T04:06:30;99168.47;;;4.72
1532;BMP280;759;53.170;8.210;2022-11-18T04:09:00;99171.53;;;4.70
1532;BMP280;759;53.170;8.210;2022-11-18T04:11:29;99175.28;;;4.62
1532;BMP280;759;53.170;8.210;2022-11-18T04:14:27;99175.28;;;4.62
1532;BMP280;759;53.170;8.210;2022-11-18T04:16:52;99174.91;;;4.64
1532;BMP280;759;53.170;8.210;2022-11-18T04:19:18;99173.00;;;4.68
1532;BMP280;759;53.170;8.210;2022-11-18T04:21:43;99183.63;;;4.71
1532;BMP280;759;53.170;8.210;2022-11-18T04:24:09;99184.38;;;4.65
1532;BMP280;759;53.170;8.210;2022-11-18T04:26:34;99186.69;;;4.59
1532;BMP280;759;53.170;8.210;2022-11-18T04:28:59;99186.66;;;4.66
1532;BMP280;759;53.170;8.210;2022-11-18T04:31:24;99195.00;;;4.54
1532;BMP280;759;53.170;8.210;2022-11-18T04:33:50;99188.16;;;4.53
1532;BMP280;759;53.170;8.210;2022-11-18T04:36:15;99195.00;;;4.54
1532;BMP280;759;53.170;8.210;2022-11-18T04:38:40;99204.06;;;4.53
1532;BMP280;759;53.170;8.210;2022-11-18T04:41:05;99205.56;;;4.43
1532;BMP280;759;53.170;8.210;2022-11-18T04:43:30;99206.31;;;4.51
1532;BMP280;759;53.170;8.210;2022-11-18T04:45:55;99212.78;;;4.57
1532;BMP280;759;53.170;8.210;2022-11-18T04:48:21;99214.66;;;4.38
1532;BMP280;759;53.170;8.210;2022-11-18T04:50:46;99213.94;;;4.42
1532;BMP280;759;53.170;8.210;2022-11-18T04:53:11;99210.13;;;4.28
1532;BMP280;759;53.170;8.210;2022-11-18T04:55:36;99214.66;;;4.31
1532;BMP280;759;53.170;8.210;2022-11-18T04:58:01;99208.63;;;4.34
1532;BMP280;759;53.170;8.210;2022-11-18T05:00:27;99214.63;;;4.28
1532;BMP280;759;53.170;8.210;2022-11-18T05:02:52;99217.66;;;4.30
1532;BMP280;759;53.170;8.210;2022-11-18T05:05:17;99218.81;;;4.29
1532;BMP280;759;53.170;8.210;2022-11-18T05:07:42;99220.34;;;4.19
1532;BMP280;759;53.170;8.210;2022-11-18T05:10:08;99224.84;;;4.26
1532;BMP280;759;53.170;8.210;2022-11-18T05:12:33;99218.44;;;4.27
1532;BMP280;759;53.170;8.210;2022-11-18T05:15:20;99219.56;;;4.26
1532;BMP280;759;53.170;8.210;2022-11-18T05:17:46;99213.88;;;4.20
1532;BMP280;759;53.170;8.210;2022-11-18T05:20:11;99219.56;;;4.15
1532;BMP280;759;53.170;8.210;2022-11-18T05:22:37;99227.50;;;4.11
1532;BMP280;759;53.170;8.210;2022-11-18T05:25:02;99223.69;;;4.12
1532;BMP280;759;53.170;8.210;2022-11-18T05:27:27;99222.16;;;4.01
1532;BMP280;759;53.170;8.210;2022-11-18T05:29:53;99221.81;;;3.98
1532;BMP280;759;53.170;8.210;2022-11-18T05:32:18;99217.63;;;3.97
1532;BMP280;759;53.170;8.210;2022-11-18T05:34:43;99225.91;;;3.99
1532;BMP280;759;53.170;8.210;2022-11-18T05:37:08;99225.94;;;4.07
1532;BMP280;759;53.170;8.210;2022-11-18T05:39:34;99226.72;;;4.04
1532;BMP280;759;53.170;8.210;2022-11-18T05:41:59;99235.75;;;3.95
1532;BMP280;759;53.170;8.210;2022-11-18T05:44:43;99239.94;;;4.00
1532;BMP280;759;53.170;8.210;2022-11-18T05:47:08;99245.59;;;3.91
1532;BMP280;759;53.170;8.210;2022-11-18T05:49:34;99250.84;;;3.84
1532;BMP280;759;53.170;8.210;2022-11-18T05:51:59;99260.72;;;3.91
1532;BMP280;759;53.170;8.210;2022-11-18T05:54:24;99272.03;;;3.91
1532;BMP280;759;53.170;8.210;2022-11-18T05:56:50;99276.56;;;3.87
1532;BMP280;759;53.170;8.210;2022-11-18T05:59:15;99277.66;;;3.79
1532;BMP280;759;53.170;8.210;2022-11-18T06:01:42;99278.41;;;3.79
1532;BMP280;759;53.170;8.210;2022-11-18T06:06:40;99278.78;;;3.74
1532;BMP280;759;53.170;8.210;2022-11-18T06:09:06;99280.69;;;3.81
1532;BMP280;759;53.170;8.210;2022-11-18T06:11:35;99283.75;;;3.87
1532;BMP280;759;53.170;8.210;2022-11-18T06:14:04;99283.34;;;3.81
1532;BMP280;759;53.170;8.210;2022-11-18T06:16:30;99293.09;;;3.66
1532;BMP280;759;53.170;8.210;2022-11-18T06:18:56;99299.91;;;3.71
1532;BMP280;759;53.170;8.210;2022-11-18T06:21:22;99295.44;;;3.75
1532;BMP280;759;53.170;8.210;2022-11-18T06:23:47;99301.44;;;3.72
1532;BMP280;759;53.170;8.210;2022-11-18T06:26:13;99296.94;;;3.76
1532;BMP280;759;53.170;8.210;2022-11-18T06:28:39;99304.50;;;3.81
1532;BMP280;759;53.170;8.210;2022-11-18T06:31:05;99305.63;;;3.80
1532;BMP280;759;53.170;8.210;2022-11-18T06:33:30;99295.78;;;3.73
1532;BMP280;759;53.170;8.210;2022-11-18T06:35:55;99307.50;;;3.72
1532;BMP280;759;53.170;8.210;2022-11-18T06:38:22;99305.59;;;3.73
1532;BMP280;759;53.170;8.210;2022-11-18T06:40:47;99312.06;;;3.75
1532;BMP280;759;53.170;8.210;2022-11-18T06:43:13;99299.94;;;3.78
1532;BMP280;759;53.170;8.210;2022-11-18T06:46:00;99312.41;;;3.77
1532;BMP280;759;53.170;8.210;2022-11-18T06:48:45;99309.78;;;3.74
1532;BMP280;759;53.170;8.210;2022-11-18T06:51:11;99317.31;;;3.72
1532;BMP280;759;53.170;8.210;2022-11-18T06:53:38;99327.84;;;3.65
1532;BMP280;759;53.170;8.210;2022-11-18T06:56:04;99326.34;;;3.67
1532;BMP280;759;53.170;8.210;2022-11-18T06:58:30;99331.28;;;3.69
1532;BMP280;759;53.170;8.210;2022-11-18T07:00:55;99337.31;;;3.66
1532;BMP280;759;53.170;8.210;2022-11-18T07:03:20;99338.81;;;3.67
1532;BMP280;759;53.170;8.210;2022-11-18T07:05:45;99343.00;;;3.68
1532;BMP280;759;53.170;8.210;2022-11-18T07:11:14;99350.53;;;3.66
1532;BMP280;759;53.170;8.210;2022-11-18T07:13:40;99354.34;;;3.72
1532;BMP280;759;53.170;8.210;2022-11-18T07:16:13;99369.50;;;3.75
1532;BMP280;759;53.170;8.210;2022-11-18T07:18:39;99374.31;;;3.62
1532;BMP280;759;53.170;8.210;2022-11-18T07:21:06;99371.59;;;3.51
1532;BMP280;759;53.170;8.210;2022-11-18T07:23:32;99379.25;;;3.64
1532;BMP280;759;53.170;8.210;2022-11-18T07:25:57;99380.75;;;3.65
1532;BMP280;759;53.170;8.210;2022-11-18T07:28:22;99394.75;;;3.69
1532;BMP280;759;53.170;8.210;2022-11-18T07:30:48;99385.34;;;3.71
1532;BMP280;759;53.170;8.210;2022-11-18T07:33:13;99393.66;;;3.73
1532;BMP280;759;53.170;8.210;2022-11-18T07:35:38;99402.28;;;3.67
1532;BMP280;759;53.170;8.210;2022-11-18T07:38:03;99404.22;;;3.70
1532;BMP280;759;53.170;8.210;2022-11-18T07:40:28;99415.13;;;3.65
1532;BMP280;759;53.170;8.210;2022-11-18T07:42:53;99424.38;;;3.92
1532;BMP280;759;53.170;8.210;2022-11-18T07:45:19;99417.13;;;3.82
1532;BMP280;759;53.170;8.210;2022-11-18T07:47:44;99424.72;;;3.87
1532;BMP280;759;53.170;8.210;2022-11-18T07:50:09;99425.81;;;3.86
1532;BMP280;759;53.170;8.210;2022-11-18T07:52:34;99428.09;;;3.84
1532;BMP280;759;53.170;8.210;2022-11-18T07:54:59;99428.47;;;3.86
1532;BMP280;759;53.170;8.210;2022-11-18T07:57:25;99431.13;;;3.86
1532;BMP280;759;53.170;8.210;2022-11-18T07:59:50;99428.56;;;3.97
1532;BMP280;759;53.170;8.210;2022-11-18T08:02:15;99441.31;;;3.84
1532;BMP280;759;53.170;8.210;2022-11-18T08:04:40;99435.25;;;3.80
1532;BMP280;759;53.170;8.210;2022-11-18T08:07:08;99442.81;;;3.82
1532;BMP280;759;53.170;8.210;2022-11-18T08:09:33;99445.44;;;3.78
1532;BMP280;759;53.170;8.210;2022-11-18T08:11:58;99444.31;;;3.75
1532;BMP280;759;53.170;8.210;2022-11-18T08:14:23;99457.91;;;3.74
1532;BMP280;759;53.170;8.210;2022-11-18T08:16:48;99447.66;;;3.69
1532;BMP280;759;53.170;8.210;2022-11-18T08:19:14;99457.91;;;3.74
1532;BMP280;759;53.170;8.210;2022-11-18T08:21:39;99462.44;;;3.73
1532;BMP280;759;53.170;8.210;2022-11-18T08:24:04;99454.91;;;3.75
1532;BMP280;759;53.170;8.210;2022-11-18T08:26:30;99458.63;;;3.71
1532;BMP280;759;53.170;8.210;2022-11-18T08:28:56;99470.41;;;3.77
1532;BMP280;759;53.170;8.210;2022-11-18T08:31:23;99470.00;;;3.75
1532;BMP280;759;53.170;8.210;2022-11-18T08:33:53;99476.06;;;3.79
1532;BMP280;759;53.170;8.210;2022-11-18T08:36:20;99479.78;;;3.71
1532;BMP280;759;53.170;8.210;2022-11-18T08:38:46;99482.84;;;3.76
1532;BMP280;759;53.170;8.210;2022-11-18T08:41:11;99482.44;;;3.71
1532;BMP280;759;53.170;8.210;2022-11-18T08:43:37;99481.94;;;3.58
1532;BMP280;759;53.170;8.210;2022-11-18T08:46:02;99477.41;;;3.58
1532;BMP280;759;53.170;8.210;2022-11-18T08:48:27;99484.19;;;3.56
1532;BMP280;759;53.170;8.210;2022-11-18T08:50:52;99489.09;;;3.57
1532;BMP280;759;53.170;8.210;2022-11-18T08:53:18;99486.75;;;3.45
1532;BMP280;759;53.170;8.210;2022-11-18T08:55:44;99496.72;;;3.63
1532;BMP280;759;53.170;8.210;2022-11-18T08:58:09;99500.06;;;3.59
1532;BMP280;759;53.170;8.210;2022-11-18T09:00:34;99506.59;;;3.66
1532;BMP280;759;53.170;8.210;2022-11-18T09:02:59;99508.34;;;3.54
1532;BMP280;759;53.170;8.210;2022-11-18T09:05:25;99509.94;;;3.63
1532;BMP280;759;53.170;8.210;2022-11-18T09:07:50;99512.50;;;3.52
1532;BMP280;759;53.170;8.210;2022-11-18T09:10:15;99505.72;;;3.54
1532;BMP280;759;53.170;8.210;2022-11-18T09:12:40;99512.75;;;3.40
1532;BMP280;759;53.170;8.210;2022-11-18T09:15:06;99515.09;;;3.45
1532;BMP280;759;53.170;8.210;2022-11-18T09:17:32;99521.06;;;3.38
1532;BMP280;759;53.170;8.210;2022-11-18T09:19:58;99520.28;;;3.37
1532;BMP280;759;53.170;8.210;2022-11-18T09:22:23;99522.44;;;3.25
1532;BMP280;759;53.170;8.210;2022-11-18T09:24:48;99520.25;;;3.34
1532;BMP280;759;53.170;8.210;2022-11-18T09:27:13;99538.50;;;3.43
1532;BMP280;759;53.170;8.210;2022-11-18T09:29:38;99537.34;;;3.44
1532;BMP280;759;53.170;8.210;2022-11-18T09:32:04;99540.03;;;3.47
1532;BMP280;759;53.170;8.210;2022-11-18T09:34:29;99547.66;;;3.56
1532;BMP280;759;53.170;8.210;2022-11-18T09:36:54;99542.19;;;3.38
1532;BMP280;759;53.170;8.210;2022-11-18T09:39:21;99545.16;;;3.33
1532;BMP280;759;53.170;8.210;2022-11-18T09:41:47;99554.63;;;3.34
1532;BMP280;759;53.170;8.210;2022-11-18T09:47:05;99550.13;;;3.38
1532;BMP280;759;53.170;8.210;2022-11-18T09:49:32;99556.91;;;3.35
1532;BMP280;759;53.170;8.210;2022-11-18T09:52:04;99561.00;;;3.33
1532;BMP280;759;53.170;8.210;2022-11-18T09:54:35;99563.66;;;3.33
1532;BMP280;759;53.170;8.210;2022-11-18T09:57:01;99561.00;;;3.33
1532;BMP280;759;53.170;8.210;2022-11-18T09:59:27;99568.53;;;3.31
1532;BMP280;759;53.170;8.210;2022-11-18T10:01:55;99573.13;;;3.34
1532;BMP280;759;53.170;8.210;2022-11-18T10:04:22;99579.06;;;3.27
1532;BMP280;759;53.170;8.210;2022-11-18T10:06:48;99577.22;;;3.28
1532;BMP280;759;53.170;8.210;2022-11-18T10:24:36;99607.78;;;3.29
1532;BMP280;759;53.170;8.210;2022-11-18T10:27:10;99609.72;;;3.32
1532;BMP280;759;53.170;8.210;2022-11-18T10:29:35;99610.78;;;3.27
1532;BMP280;759;53.170;8.210;2022-11-18T10:32:04;99614.94;;;3.25
1532;BMP280;759;53.170;8.210;2022-11-18T10:34:30;99618.38;;;3.29
1532;BMP280;759;53.170;8.210;2022-11-18T10:37:00;99622.94;;;3.32
1532;BMP280;759;53.170;8.210;2022-11-18T10:39:25;99619.13;;;3.26
1532;BMP280;759;53.170;8.210;2022-11-18T10:41:51;99622.72;;;3.14
1532;BMP280;759;53.170;8.210;2022-11-18T10:44:33;99625.06;;;3.19
1532;BMP280;759;53.170;8.210;2022-11-18T10:47:20;99628.41;;;3.12
1532;BMP280;759;53.170;8.210;2022-11-18T10:49:47;99628.41;;;3.12
1532;BMP280;759;53.170;8.210;2022-11-18T10:52:12;99640.56;;;3.21
1532;BMP280;759;53.170;8.210;2022-11-18T10:54:38;99643.63;;;3.23
1532;BMP280;759;53.170;8.210;2022-11-18T10:59:33;99637.63;;;3.26
1532;BMP280;759;53.170;8.210;2022-11-18T11:02:08;99634.50;;;3.16
1532;BMP280;759;53.170;8.210;2022-11-18T11:04:37;99641.75;;;3.23
1532;BMP280;759;53.170;8.210;2022-11-18T11:07:22;99645.47;;;3.18
1532;BMP280;759;53.170;8.210;2022-11-18T11:10:33;99637.09;;;3.13
1532;BMP280;759;53.170;8.210;2022-11-18T11:12:37;99654.72;;;3.35
1532;BMP280;759;53.170;8.210;2022-11-18T11:17:55;99647.47;;;3.63
1532;BMP280;759;53.170;8.210;2022-11-18T11:20:40;99651.00;;;3.40
1532;BMP280;759;53.170;8.210;2022-11-18T11:23:15;99640.78;;;3.38
1532;BMP280;759;53.170;8.210;2022-11-18T11:30:43;99658.44;;;3.31
1532;BMP280;759;53.170;8.210;2022-11-18T11:46:17;99679.97;;;3.33
1532;BMP280;759;53.170;8.210;2022-11-18T11:54:18;99670.59;;;3.35
1532;BMP280;759;53.170;8.210;2022-11-18T11:57:03;99671.78;;;3.11
1532;BMP280;759;53.170;8.210;2022-11-18T12:04:54;99682.75;;;3.13
1532;BMP280;759;53.170;8.210;2022-11-18T12:07:22;99688.56;;;3.23
1532;BMP280;759;53.170;8.210;2022-11-18T12:12:28;99679.94;;;3.29
1532;BMP280;759;53.170;8.210;2022-11-18T12:15:07;99684.38;;;3.22
1532;BMP280;759;53.170;8.210;2022-11-18T12:17:39;99683.50;;;3.10
1532;BMP280;759;53.170;8.210;2022-11-18T12:23:07;99688.44;;;3.15
1532;BMP280;759;53.170;8.210;2022-11-18T12:28:10;99702.31;;;3.35
1532;BMP280;759;53.170;8.210;2022-11-18T12:30:39;99703.56;;;3.45
1532;BMP280;759;53.170;8.210;2022-11-18T12:33:09;99706.63;;;3.47
1532;BMP280;759;53.170;8.210;2022-11-18T12:35:37;99711.41;;;3.38
1532;BMP280;759;53.170;8.210;2022-11-18T12:38:03;99704.72;;;3.48
1532;BMP280;759;53.170;8.210;2022-11-18T12:40:33;99706.91;;;3.42
1532;BMP280;759;53.170;8.210;2022-11-18T12:42:59;99708.47;;;3.43
1532;BMP280;759;53.170;8.210;2022-11-18T12:50:54;99716.28;;;3.36
1532;BMP280;759;53.170;8.210;2022-11-18T12:58:59;99727.16;;;3.31
1532;BMP280;759;53.170;8.210;2022-11-18T13:01:28;99728.75;;;3.35
1532;BMP280;759;53.170;8.210;2022-11-18T13:06:37;99725.03;;;3.40
1532;BMP280;759;53.170;8.210;2022-11-18T13:09:03;99726.75;;;3.29
1532;BMP280;759;53.170;8.210;2022-11-18T13:11:29;99715.00;;;3.23
1532;BMP280;759;53.170;8.210;2022-11-18T13:14:14;99726.25;;;3.20
1532;BMP280;759;53.170;8.210;2022-11-18T13:17:22;99714.25;;;3.22
1532;BMP280;759;53.170;8.210;2022-11-18T13:20:17;99726.25;;;3.20
1532;BMP280;759;53.170;8.210;2022-11-18T13:22:48;99728.09;;;3.15
1532;BMP280;759;53.170;8.210;2022-11-18T13:25:31;99720.06;;;3.08
1532;BMP280;759;53.170;8.210;2022-11-18T13:27:59;99733.69;;;3.10
1532;BMP280;759;53.170;8.210;2022-11-18T13:30:26;99732.56;;;3.11
1532;BMP280;759;53.170;8.210;2022-11-18T13:32:52;99742.31;;;3.07
1532;BMP280;759;53.170;8.210;2022-11-18T13:35:19;99734.97;;;2.93
1532;BMP280;759;53.170;8.210;2022-11-18T13:40:18;99748.50;;;3.15
1532;BMP280;759;53.170;8.210;2022-11-18T13:42:43;99747.50;;;3.00
1532;BMP280;759;53.170;8.210;2022-11-18T13:45:11;99752.00;;;2.96
1532;BMP280;759;53.170;8.210;2022-11-18T13:47:45;99758.38;;;2.95
1532;BMP280;759;53.170;8.210;2022-11-18T13:55:06;99755.69;;;2.91
1532;BMP280;759;53.170;8.210;2022-11-18T13:57:32;99762.16;;;2.94
1532;BMP280;759;53.170;8.210;2022-11-18T14:00:00;99768.97;;;2.98
1532;BMP280;759;53.170;8.210;2022-11-18T14:02:26;99765.91;;;2.93
1532;BMP280;759;53.170;8.210;2022-11-18T14:04:55;99769.94;;;2.87
1532;BMP280;759;53.170;8.210;2022-11-18T14:07:23;99769.53;;;2.85
1532;BMP280;759;53.170;8.210;2022-11-18T14:09:52;99778.59;;;2.84
1532;BMP280;759;53.170;8.210;2022-11-18T14:14:43;99777.63;;;2.72
1532;BMP280;759;53.170;8.210;2022-11-18T14:19:43;99781.38;;;2.48
1532;BMP280;759;53.170;8.210;2022-11-18T14:22:13;99782.28;;;2.56
1532;BMP280;759;53.170;8.210;2022-11-18T14:24:39;99791.03;;;2.60
1532;BMP280;759;53.170;8.210;2022-11-18T14:29:49;99805.84;;;2.68
1532;BMP280;759;53.170;8.210;2022-11-18T14:32:14;99804.00;;;2.69
1532;BMP280;759;53.170;8.210;2022-11-18T14:34:39;99806.88;;;2.60
1532;BMP280;759;53.170;8.210;2022-11-18T14:37:08;99809.09;;;2.58
1532;BMP280;759;53.170;8.210;2022-11-18T14:39:34;99812.84;;;2.57
1532;BMP280;759;53.170;8.210;2022-11-18T14:42:02;99821.59;;;2.61
1532;BMP280;759;53.170;8.210;2022-11-18T14:44:29;99814.13;;;2.44
1532;BMP280;759;53.170;8.210;2022-11-18T14:46:58;99826.59;;;2.47
1532;BMP280;759;53.170;8.210;2022-11-18T14:49:25;99825.50;;;2.48
1532;BMP280;759;53.170;8.210;2022-11-18T14:51:50;99822.31;;;2.38
1532;BMP280;759;53.170;8.210;2022-11-18T14:54:17;99824.22;;;2.42
1532;BMP280;759;53.170;8.210;2022-11-18T14:56:43;99831.75;;;2.40
1532;BMP280;759;53.170;8.210;2022-11-18T14:59:11;99832.16;;;2.42
1532;BMP280;759;53.170;8.210;2022-11-18T15:01:41;99834.63;;;2.31
1532;BMP280;759;53.170;8.210;2022-11-18T15:04:06;99842.72;;;2.42
1532;BMP280;759;53.170;8.210;2022-11-18T15:06:32;99844.25;;;2.43
1532;BMP280;759;53.170;8.210;2022-11-18T15:08:57;99844.19;;;2.39
1532;BMP280;759;53.170;8.210;2022-11-18T15:11:22;99847.38;;;2.48
1532;BMP280;759;53.170;8.210;2022-11-18T15:13:47;99856.88;;;2.53
1532;BMP280;759;53.170;8.210;2022-11-18T15:16:14;99861.63;;;2.44
1532;BMP280;759;53.170;8.210;2022-11-18T15:18:42;99860.84;;;2.43
1532;BMP280;759;53.170;8.210;2022-11-18T15:21:08;99869.69;;;2.51
1532;BMP280;759;53.170;8.210;2022-11-18T15:23:33;99872.31;;;2.51
1532;BMP280;759;53.170;8.210;2022-11-18T15:25:59;99876.09;;;2.50
1532;BMP280;759;53.170;8.210;2022-11-18T15:28:24;99882.47;;;2.49
1532;BMP280;759;53.170;8.210;2022-11-18T15:30:49;99881.91;;;2.40
1532;BMP280;759;53.170;8.210;2022-11-18T15:33:14;99883.84;;;2.43
1532;BMP280;759;53.170;8.210;2022-11-18T15:35:39;99882.75;;;2.44
1532;BMP280;759;53.170;8.210;2022-11-18T15:38:05;99885.75;;;2.42
1532;BMP280;759;53.170;8.210;2022-11-18T15:40:30;99889.56;;;2.45
1532;BMP280;759;53.170;8.210;2022-11-18T15:42:55;99892.75;;;2.34
1532;BMP280;759;53.170;8.210;2022-11-18T15:45:20;99890.22;;;2.42
1532;BMP280;759;53.170;8.210;2022-11-18T15:47:45;99896.09;;;2.31
1532;BMP280;759;53.170;8.210;2022-11-18T15:50:11;99889.81;;;2.20
1532;BMP280;759;53.170;8.210;2022-11-18T15:52:36;99902.69;;;2.22
1532;BMP280;759;53.170;8.210;2022-11-18T15:55:02;99905.06;;;2.27
1532;BMP280;759;53.170;8.210;2022-11-18T15:57:27;99910.50;;;2.18
1532;BMP280;759;53.170;8.210;2022-11-18T15:59:52;99915.38;;;2.16
1532;BMP280;759;53.170;8.210;2022-11-18T16:02:17;99910.50;;;2.18
1532;BMP280;759;53.170;8.210;2022-11-18T16:04:42;99913.41;;;2.29
1532;BMP280;759;53.170;8.210;2022-11-18T16:07:08;99913.06;;;2.30
1532;BMP280;759;53.170;8.210;2022-11-18T16:09:33;99916.84;;;2.13
1532;BMP280;759;53.170;8.210;2022-11-18T16:12:16;99925.25;;;2.19
1532;BMP280;759;53.170;8.210;2022-11-18T16:15:00;99932.03;;;2.20
1532;BMP280;759;53.170;8.210;2022-11-18T16:17:44;99930.16;;;2.21
1532;BMP280;759;53.170;8.210;2022-11-18T16:20:09;99933.50;;;2.17
1532;BMP280;759;53.170;8.210;2022-11-18T16:22:35;99929.66;;;2.15
1532;BMP280;759;53.170;8.210;2022-11-18T16:25:00;99941.59;;;2.09
1532;BMP280;759;53.170;8.210;2022-11-18T16:27:25;99950.53;;;2.20
1532;BMP280;759;53.170;8.210;2022-11-18T16:29:50;99943.13;;;2.10
1532;BMP280;759;53.170;8.210;2022-11-18T16:32:15;99948.63;;;2.21
1532;BMP280;759;53.170;8.210;2022-11-18T16:34:40;99951.91;;;2.14
1532;BMP280;759;53.170;8.210;2022-11-18T16:37:06;99956.06;;;2.15
1532;BMP280;759;53.170;8.210;2022-11-18T16:39:31;99958.69;;;2.15
1532;BMP280;759;53.170;8.210;2022-11-18T16:41:57;99967.13;;;2.05
1532;BMP280;759;53.170;8.210;2022-11-18T16:44:23;99958.78;;;2.03
1532;BMP280;759;53.170;8.210;2022-11-18T16:46:49;99970.94;;;2.07
1532;BMP280;759;53.170;8.210;2022-11-18T16:49:15;99964.06;;;2.03
1532;BMP280;759;53.170;8.210;2022-11-18T16:51:41;99975.28;;;2.00
1532;BMP280;759;53.170;8.210;2022-11-18T16:54:07;99969.53;;;2.10